Atlanta, GA (31136)

7:31 PM EST on February 27, 2017 (GMT -0500)
Atlanta | | Change Station

Elev 0 ft 33.66 °N, 84.40 °W | Updated 2 seconds ago

Mostly Cloudy
Mostly Cloudy
51.6 °F
Feels Like 51.6 °F
N
0.0
Wind Variable Wind from North
Gusts 0.6 mph

Today
High -- | Low -- °F
--% Chance of Precip.
Yesterday
High -- | Low -- °F
Precip. -- in
Pressure 30.25 in
Visibility 10.0 miles
Clouds Scattered Clouds 15000 ft
Mostly Cloudy 20000 ft
Mostly Cloudy 25000 ft
Dew Point 47 °F
Humidity 84%
Rainfall 0.06 in
Snow Depth Not available.
7:08 AM 6:32 PM
New Moon, 2% visible
METAR KATL 272352Z 07006KT 10SM SCT150 BKN200 BKN250 11/09 A3024 RMK AO2 SLP243 VIRGA DSNT SE-SW 60006 T01110094 10139 20094 51001
Pressure 30.25 in
Visibility 10.0 miles
Clouds Scattered Clouds 15000 ft
Mostly Cloudy 20000 ft
Mostly Cloudy 25000 ft
Dew Point 47 °F
Humidity 84%
Rainfall 0.06 in
Snow Depth Not available.
7:08 AM 6:32 PM
New Moon, 2% visible
METAR KATL 272352Z 07006KT 10SM SCT150 BKN200 BKN250 11/09 A3024 RMK AO2 SLP243 VIRGA DSNT SE-SW 60006 T01110094 10139 20094 51001

Get Your Daily Forecast Email!

Thanks for signing up!

Be on the lookout for a verification email in your inbox.

You'll start receiving the daily forecast at 8 AM.

×

10-Day Weather Forecast

Almanac

Astronomy

Feb. 27, 2017 Rise Set
Actual Time
Civil Twilight
Nautical Twilight
Astronomical Twilight
Moon
Length of Visible Light
Length of Day
Tomorrow will be .
, % of the Moon is Illuminated

Today's Extremes

State Highs State Lows

Community

WunderPhotos

Upload Photos

1,962,540 photos uploaded!

WunderBlog® & News

Nearby

Air Quality

  Air Quality AQ Index Pollutant
Not available.

Snow Depth

Station Depth Elevation

Earthquake Activity

City Distance Mag. Time & Date
Minimum magnitude displayed is 2.5.

Coastal Water Temperatures

Place Temperature

Stations

Nearby Weather Stations

Station Location Temp. Windchill Dew Point Humidity Wind Precip. Elev Updated Type
                   

Watches & Warnings

There are currently no watches in effect.